sensor_id;sensor_type;location;lat;lon;timestamp;P1;durP1;ratioP1;P2;durP2;ratioP2
33593;SDS011;19920;52.242;20.940;2024-01-25T00:01:29;9.65;;;2.08;;
33593;SDS011;19920;52.242;20.940;2024-01-25T00:03:54;12.95;;;2.25;;
33593;SDS011;19920;52.242;20.940;2024-01-25T00:06:20;7.13;;;1.75;;
33593;SDS011;19920;52.242;20.940;2024-01-25T00:08:46;8.30;;;2.05;;
33593;SDS011;19920;52.242;20.940;2024-01-25T00:11:12;7.47;;;1.95;;
33593;SDS011;19920;52.242;20.940;2024-01-25T00:13:37;8.13;;;1.88;;
33593;SDS011;19920;52.242;20.940;2024-01-25T00:16:04;13.15;;;2.00;;
33593;SDS011;19920;52.242;20.940;2024-01-25T00:18:29;5.63;;;1.23;;
33593;SDS011;19920;52.242;20.940;2024-01-25T00:20:55;8.98;;;1.65;;
33593;SDS011;19920;52.242;20.940;2024-01-25T00:23:20;6.63;;;1.42;;
33593;SDS011;19920;52.242;20.940;2024-01-25T00:25:46;8.20;;;1.48;;
33593;SDS011;19920;52.242;20.940;2024-01-25T00:28:12;5.05;;;1.23;;
33593;SDS011;19920;52.242;20.940;2024-01-25T00:30:38;4.32;;;0.98;;
33593;SDS011;19920;52.242;20.940;2024-01-25T00:33:04;3.95;;;0.98;;
33593;SDS011;19920;52.242;20.940;2024-01-25T00:35:30;6.95;;;1.00;;
33593;SDS011;19920;52.242;20.940;2024-01-25T00:37:56;9.43;;;1.17;;
33593;SDS011;19920;52.242;20.940;2024-01-25T00:40:21;7.55;;;1.10;;
33593;SDS011;19920;52.242;20.940;2024-01-25T00:42:47;5.45;;;1.23;;
33593;SDS011;19920;52.242;20.940;2024-01-25T00:45:17;6.68;;;1.23;;
33593;SDS011;19920;52.242;20.940;2024-01-25T00:47:47;6.63;;;1.10;;
33593;SDS011;19920;52.242;20.940;2024-01-25T00:50:13;5.75;;;1.40;;
33593;SDS011;19920;52.242;20.940;2024-01-25T00:52:39;8.65;;;1.52;;
33593;SDS011;19920;52.242;20.940;2024-01-25T00:55:05;9.70;;;1.60;;
33593;SDS011;19920;52.242;20.940;2024-01-25T00:57:31;6.10;;;1.60;;
33593;SDS011;19920;52.242;20.940;2024-01-25T00:59:58;8.15;;;1.65;;
33593;SDS011;19920;52.242;20.940;2024-01-25T01:02:24;6.90;;;1.65;;
33593;SDS011;19920;52.242;20.940;2024-01-25T01:04:55;9.05;;;1.58;;
33593;SDS011;19920;52.242;20.940;2024-01-25T01:07:22;9.90;;;1.75;;
33593;SDS011;19920;52.242;20.940;2024-01-25T01:09:47;9.25;;;1.83;;
33593;SDS011;19920;52.242;20.940;2024-01-25T01:12:13;12.07;;;2.30;;
33593;SDS011;19920;52.242;20.940;2024-01-25T01:14:39;7.63;;;1.70;;
33593;SDS011;19920;52.242;20.940;2024-01-25T01:17:04;13.18;;;1.92;;
33593;SDS011;19920;52.242;20.940;2024-01-25T01:19:30;10.20;;;1.65;;
33593;SDS011;19920;52.242;20.940;2024-01-25T01:21:56;9.82;;;1.83;;
33593;SDS011;19920;52.242;20.940;2024-01-25T01:24:22;11.88;;;2.15;;
33593;SDS011;19920;52.242;20.940;2024-01-25T01:26:47;12.27;;;2.05;;
33593;SDS011;19920;52.242;20.940;2024-01-25T01:29:13;13.35;;;2.10;;
33593;SDS011;19920;52.242;20.940;2024-01-25T01:31:39;11.98;;;1.92;;
33593;SDS011;19920;52.242;20.940;2024-01-25T01:34:05;13.50;;;1.60;;
33593;SDS011;19920;52.242;20.940;2024-01-25T01:36:30;13.77;;;2.17;;
33593;SDS011;19920;52.242;20.940;2024-01-25T01:38:56;13.98;;;2.13;;
33593;SDS011;19920;52.242;20.940;2024-01-25T01:41:21;11.57;;;2.20;;
33593;SDS011;19920;52.242;20.940;2024-01-25T01:43:47;8.82;;;2.08;;
33593;SDS011;19920;52.242;20.940;2024-01-25T01:46:35;15.50;;;2.37;;
33593;SDS011;19920;52.242;20.940;2024-01-25T01:49:06;12.00;;;1.95;;
33593;SDS011;19920;52.242;20.940;2024-01-25T01:51:34;10.98;;;1.80;;
33593;SDS011;19920;52.242;20.940;2024-01-25T01:54:00;10.70;;;2.25;;
33593;SDS011;19920;52.242;20.940;2024-01-25T01:56:30;13.40;;;2.50;;
33593;SDS011;19920;52.242;20.940;2024-01-25T01:59:00;17.13;;;2.58;;
33593;SDS011;19920;52.242;20.940;2024-01-25T02:03:53;10.40;;;2.67;;
33593;SDS011;19920;52.242;20.940;2024-01-25T02:06:19;13.50;;;1.73;;
33593;SDS011;19920;52.242;20.940;2024-01-25T02:08:45;12.73;;;2.45;;
33593;SDS011;19920;52.242;20.940;2024-01-25T02:11:16;12.73;;;1.77;;
33593;SDS011;19920;52.242;20.940;2024-01-25T02:13:41;14.23;;;2.22;;
33593;SDS011;19920;52.242;20.940;2024-01-25T02:16:07;11.57;;;2.28;;
33593;SDS011;19920;52.242;20.940;2024-01-25T02:18:33;15.93;;;2.05;;
33593;SDS011;19920;52.242;20.940;2024-01-25T02:20:59;11.55;;;2.05;;
33593;SDS011;19920;52.242;20.940;2024-01-25T02:23:25;12.52;;;2.10;;
33593;SDS011;19920;52.242;20.940;2024-01-25T02:25:50;12.43;;;1.77;;
33593;SDS011;19920;52.242;20.940;2024-01-25T02:28:16;11.57;;;1.92;;
33593;SDS011;19920;52.242;20.940;2024-01-25T02:30:42;11.70;;;1.80;;
33593;SDS011;19920;52.242;20.940;2024-01-25T02:33:07;12.10;;;2.03;;
33593;SDS011;19920;52.242;20.940;2024-01-25T02:35:33;9.70;;;2.08;;
33593;SDS011;19920;52.242;20.940;2024-01-25T02:37:59;16.02;;;2.25;;
33593;SDS011;19920;52.242;20.940;2024-01-25T02:40:24;12.55;;;2.08;;
33593;SDS011;19920;52.242;20.940;2024-01-25T02:42:50;17.88;;;2.28;;
33593;SDS011;19920;52.242;20.940;2024-01-25T02:45:16;11.77;;;2.47;;
33593;SDS011;19920;52.242;20.940;2024-01-25T02:47:41;14.27;;;2.30;;
33593;SDS011;19920;52.242;20.940;2024-01-25T02:50:07;16.05;;;2.72;;
33593;SDS011;19920;52.242;20.940;2024-01-25T02:52:33;15.05;;;1.90;;
33593;SDS011;19920;52.242;20.940;2024-01-25T02:54:59;15.82;;;2.58;;
33593;SDS011;19920;52.242;20.940;2024-01-25T02:57:24;11.27;;;1.85;;
33593;SDS011;19920;52.242;20.940;2024-01-25T02:59:50;17.45;;;2.40;;
33593;SDS011;19920;52.242;20.940;2024-01-25T03:02:16;13.38;;;2.33;;
33593;SDS011;19920;52.242;20.940;2024-01-25T03:04:44;10.57;;;2.30;;
33593;SDS011;19920;52.242;20.940;2024-01-25T03:07:10;11.50;;;1.83;;
33593;SDS011;19920;52.242;20.940;2024-01-25T03:09:35;14.48;;;2.70;;
33593;SDS011;19920;52.242;20.940;2024-01-25T03:12:01;10.57;;;2.60;;
33593;SDS011;19920;52.242;20.940;2024-01-25T03:14:26;12.18;;;1.95;;
33593;SDS011;19920;52.242;20.940;2024-01-25T03:16:52;15.15;;;2.25;;
33593;SDS011;19920;52.242;20.940;2024-01-25T03:19:18;15.45;;;2.13;;
33593;SDS011;19920;52.242;20.940;2024-01-25T03:21:43;12.20;;;2.22;;
33593;SDS011;19920;52.242;20.940;2024-01-25T03:24:09;12.20;;;2.20;;
33593;SDS011;19920;52.242;20.940;2024-01-25T03:26:34;9.38;;;2.17;;
33593;SDS011;19920;52.242;20.940;2024-01-25T03:29:00;17.45;;;2.85;;
33593;SDS011;19920;52.242;20.940;2024-01-25T03:31:25;14.80;;;2.45;;
33593;SDS011;19920;52.242;20.940;2024-01-25T03:33:51;12.68;;;3.50;;
33593;SDS011;19920;52.242;20.940;2024-01-25T03:36:17;12.63;;;2.28;;
33593;SDS011;19920;52.242;20.940;2024-01-25T03:38:42;11.55;;;2.33;;
33593;SDS011;19920;52.242;20.940;2024-01-25T03:41:08;12.18;;;2.25;;
33593;SDS011;19920;52.242;20.940;2024-01-25T03:43:34;11.02;;;2.28;;
33593;SDS011;19920;52.242;20.940;2024-01-25T03:46:00;14.13;;;2.30;;
33593;SDS011;19920;52.242;20.940;2024-01-25T03:48:26;16.38;;;2.42;;
33593;SDS011;19920;52.242;20.940;2024-01-25T03:50:51;12.02;;;2.13;;
33593;SDS011;19920;52.242;20.940;2024-01-25T03:53:21;9.75;;;1.67;;
33593;SDS011;19920;52.242;20.940;2024-01-25T03:55:47;13.02;;;1.83;;
33593;SDS011;19920;52.242;20.940;2024-01-25T03:58:14;14.25;;;2.42;;
33593;SDS011;19920;52.242;20.940;2024-01-25T04:00:43;15.15;;;2.60;;
33593;SDS011;19920;52.242;20.940;2024-01-25T04:03:08;13.32;;;2.42;;
33593;SDS011;19920;52.242;20.940;2024-01-25T04:05:35;15.65;;;1.92;;
33593;SDS011;19920;52.242;20.940;2024-01-25T04:08:00;11.75;;;2.22;;
33593;SDS011;19920;52.242;20.940;2024-01-25T04:10:26;11.40;;;1.90;;
33593;SDS011;19920;52.242;20.940;2024-01-25T04:12:51;16.52;;;2.65;;
33593;SDS011;19920;52.242;20.940;2024-01-25T04:15:17;12.60;;;2.30;;
33593;SDS011;19920;52.242;20.940;2024-01-25T04:17:43;14.05;;;2.28;;
33593;SDS011;19920;52.242;20.940;2024-01-25T04:20:08;19.90;;;2.28;;
33593;SDS011;19920;52.242;20.940;2024-01-25T04:22:35;15.38;;;2.38;;
33593;SDS011;19920;52.242;20.940;2024-01-25T04:25:01;11.10;;;2.17;;
33593;SDS011;19920;52.242;20.940;2024-01-25T04:27:27;13.00;;;2.53;;
33593;SDS011;19920;52.242;20.940;2024-01-25T04:29:52;12.85;;;2.63;;
33593;SDS011;19920;52.242;20.940;2024-01-25T04:32:18;12.25;;;2.33;;
33593;SDS011;19920;52.242;20.940;2024-01-25T04:34:43;11.07;;;1.75;;
33593;SDS011;19920;52.242;20.940;2024-01-25T04:37:11;17.38;;;2.63;;
33593;SDS011;19920;52.242;20.940;2024-01-25T04:39:36;12.75;;;2.45;;
33593;SDS011;19920;52.242;20.940;2024-01-25T04:42:02;16.27;;;2.38;;
33593;SDS011;19920;52.242;20.940;2024-01-25T04:44:28;18.80;;;2.25;;
33593;SDS011;19920;52.242;20.940;2024-01-25T04:46:53;15.50;;;2.15;;
33593;SDS011;19920;52.242;20.940;2024-01-25T04:49:19;20.90;;;2.70;;
33593;SDS011;19920;52.242;20.940;2024-01-25T04:51:45;13.23;;;2.13;;
33593;SDS011;19920;52.242;20.940;2024-01-25T04:54:11;13.27;;;2.40;;
33593;SDS011;19920;52.242;20.940;2024-01-25T04:56:38;10.50;;;2.03;;
33593;SDS011;19920;52.242;20.940;2024-01-25T04:59:03;10.43;;;2.35;;
33593;SDS011;19920;52.242;20.940;2024-01-25T05:01:29;11.18;;;1.88;;
33593;SDS011;19920;52.242;20.940;2024-01-25T05:03:55;10.38;;;1.80;;
33593;SDS011;19920;52.242;20.940;2024-01-25T05:06:20;11.85;;;1.88;;
33593;SDS011;19920;52.242;20.940;2024-01-25T05:08:46;10.98;;;2.05;;
33593;SDS011;19920;52.242;20.940;2024-01-25T05:11:11;12.32;;;2.70;;
33593;SDS011;19920;52.242;20.940;2024-01-25T05:13:37;8.75;;;1.92;;
33593;SDS011;19920;52.242;20.940;2024-01-25T05:16:03;10.85;;;1.73;;
33593;SDS011;19920;52.242;20.940;2024-01-25T05:18:28;7.57;;;1.52;;
33593;SDS011;19920;52.242;20.940;2024-01-25T05:20:54;11.02;;;2.17;;
33593;SDS011;19920;52.242;20.940;2024-01-25T05:23:19;9.63;;;1.75;;
33593;SDS011;19920;52.242;20.940;2024-01-25T05:25:45;11.48;;;1.85;;
33593;SDS011;19920;52.242;20.940;2024-01-25T05:28:10;5.50;;;1.33;;
33593;SDS011;19920;52.242;20.940;2024-01-25T05:30:36;10.88;;;1.83;;
33593;SDS011;19920;52.242;20.940;2024-01-25T05:33:03;9.23;;;1.60;;
33593;SDS011;19920;52.242;20.940;2024-01-25T05:35:28;9.98;;;2.10;;
33593;SDS011;19920;52.242;20.940;2024-01-25T05:37:54;12.30;;;1.48;;
33593;SDS011;19920;52.242;20.940;2024-01-25T05:40:20;6.13;;;1.55;;
33593;SDS011;19920;52.242;20.940;2024-01-25T05:42:45;10.10;;;1.70;;
33593;SDS011;19920;52.242;20.940;2024-01-25T05:45:11;12.38;;;1.90;;
33593;SDS011;19920;52.242;20.940;2024-01-25T05:47:37;8.88;;;1.80;;
33593;SDS011;19920;52.242;20.940;2024-01-25T05:50:02;9.23;;;1.88;;
33593;SDS011;19920;52.242;20.940;2024-01-25T05:52:29;10.52;;;2.55;;
33593;SDS011;19920;52.242;20.940;2024-01-25T05:54:55;14.23;;;2.00;;
33593;SDS011;19920;52.242;20.940;2024-01-25T05:57:21;11.48;;;1.48;;
33593;SDS011;19920;52.242;20.940;2024-01-25T05:59:46;7.90;;;1.50;;
33593;SDS011;19920;52.242;20.940;2024-01-25T06:02:12;9.23;;;1.60;;
33593;SDS011;19920;52.242;20.940;2024-01-25T06:04:38;10.50;;;2.13;;
33593;SDS011;19920;52.242;20.940;2024-01-25T06:07:04;13.38;;;1.92;;
33593;SDS011;19920;52.242;20.940;2024-01-25T06:09:29;5.85;;;1.70;;
33593;SDS011;19920;52.242;20.940;2024-01-25T06:11:56;9.43;;;2.40;;
33593;SDS011;19920;52.242;20.940;2024-01-25T06:14:22;14.15;;;2.50;;
33593;SDS011;19920;52.242;20.940;2024-01-25T06:16:48;11.55;;;2.08;;
33593;SDS011;19920;52.242;20.940;2024-01-25T06:19:14;11.98;;;2.08;;
33593;SDS011;19920;52.242;20.940;2024-01-25T06:21:39;13.15;;;2.10;;
33593;SDS011;19920;52.242;20.940;2024-01-25T06:24:05;12.95;;;1.80;;
33593;SDS011;19920;52.242;20.940;2024-01-25T06:26:31;10.05;;;1.70;;
33593;SDS011;19920;52.242;20.940;2024-01-25T06:28:57;10.10;;;2.33;;
33593;SDS011;19920;52.242;20.940;2024-01-25T06:31:26;10.63;;;2.47;;
33593;SDS011;19920;52.242;20.940;2024-01-25T06:33:51;10.45;;;1.73;;
33593;SDS011;19920;52.242;20.940;2024-01-25T06:36:20;8.70;;;1.60;;
33593;SDS011;19920;52.242;20.940;2024-01-25T06:38:49;11.10;;;2.53;;
33593;SDS011;19920;52.242;20.940;2024-01-25T06:41:14;10.27;;;1.83;;
33593;SDS011;19920;52.242;20.940;2024-01-25T06:43:41;8.63;;;2.08;;
33593;SDS011;19920;52.242;20.940;2024-01-25T06:46:07;12.07;;;2.22;;
33593;SDS011;19920;52.242;20.940;2024-01-25T06:48:32;12.73;;;2.40;;
33593;SDS011;19920;52.242;20.940;2024-01-25T06:50:58;9.55;;;1.95;;
33593;SDS011;19920;52.242;20.940;2024-01-25T06:53:25;13.13;;;2.10;;
33593;SDS011;19920;52.242;20.940;2024-01-25T06:55:51;8.13;;;1.60;;
33593;SDS011;19920;52.242;20.940;2024-01-25T06:58:16;12.63;;;2.15;;
33593;SDS011;19920;52.242;20.940;2024-01-25T07:00:43;9.30;;;1.90;;
33593;SDS011;19920;52.242;20.940;2024-01-25T07:03:10;8.95;;;2.03;;
33593;SDS011;19920;52.242;20.940;2024-01-25T07:05:35;8.85;;;1.73;;
33593;SDS011;19920;52.242;20.940;2024-01-25T07:08:01;9.93;;;2.22;;
33593;SDS011;19920;52.242;20.940;2024-01-25T07:10:27;8.52;;;2.53;;
33593;SDS011;19920;52.242;20.940;2024-01-25T07:12:53;10.73;;;2.05;;
33593;SDS011;19920;52.242;20.940;2024-01-25T07:15:19;10.30;;;1.88;;
33593;SDS011;19920;52.242;20.940;2024-01-25T07:17:45;9.55;;;1.52;;
33593;SDS011;19920;52.242;20.940;2024-01-25T07:20:11;13.15;;;1.90;;
33593;SDS011;19920;52.242;20.940;2024-01-25T07:22:37;9.32;;;1.80;;
33593;SDS011;19920;52.242;20.940;2024-01-25T07:25:02;8.80;;;1.65;;
33593;SDS011;19920;52.242;20.940;2024-01-25T07:27:28;8.63;;;2.17;;
33593;SDS011;19920;52.242;20.940;2024-01-25T07:29:54;7.60;;;1.70;;
33593;SDS011;19920;52.242;20.940;2024-01-25T07:32:19;7.50;;;1.58;;
33593;SDS011;19920;52.242;20.940;2024-01-25T07:34:45;12.30;;;2.10;;
33593;SDS011;19920;52.242;20.940;2024-01-25T07:37:11;13.68;;;2.35;;
33593;SDS011;19920;52.242;20.940;2024-01-25T07:39:37;5.65;;;1.42;;
33593;SDS011;19920;52.242;20.940;2024-01-25T07:42:03;6.75;;;1.77;;
33593;SDS011;19920;52.242;20.940;2024-01-25T07:44:29;7.00;;;1.60;;
33593;SDS011;19920;52.242;20.940;2024-01-25T07:46:54;11.40;;;2.00;;
33593;SDS011;19920;52.242;20.940;2024-01-25T07:49:20;8.10;;;2.42;;
33593;SDS011;19920;52.242;20.940;2024-01-25T07:51:45;7.82;;;1.75;;
33593;SDS011;19920;52.242;20.940;2024-01-25T07:54:11;7.72;;;1.55;;
33593;SDS011;19920;52.242;20.940;2024-01-25T07:56:40;7.80;;;1.55;;
33593;SDS011;19920;52.242;20.940;2024-01-25T07:59:05;9.20;;;1.65;;
33593;SDS011;19920;52.242;20.940;2024-01-25T08:01:32;3.65;;;1.20;;
33593;SDS011;19920;52.242;20.940;2024-01-25T08:03:58;8.25;;;1.65;;
33593;SDS011;19920;52.242;20.940;2024-01-25T08:06:24;7.68;;;1.80;;
33593;SDS011;19920;52.242;20.940;2024-01-25T08:08:51;5.10;;;1.30;;
33593;SDS011;19920;52.242;20.940;2024-01-25T08:11:17;4.78;;;1.30;;
33593;SDS011;19920;52.242;20.940;2024-01-25T08:13:45;5.60;;;1.35;;
33593;SDS011;19920;52.242;20.940;2024-01-25T08:16:10;4.45;;;1.40;;
33593;SDS011;19920;52.242;20.940;2024-01-25T08:18:37;4.38;;;1.42;;
33593;SDS011;19920;52.242;20.940;2024-01-25T08:21:03;3.08;;;1.15;;
33593;SDS011;19920;52.242;20.940;2024-01-25T08:23:30;3.45;;;1.30;;
33593;SDS011;19920;52.242;20.940;2024-01-25T08:25:55;6.25;;;1.17;;
33593;SDS011;19920;52.242;20.940;2024-01-25T08:28:21;3.80;;;1.10;;
33593;SDS011;19920;52.242;20.940;2024-01-25T08:30:47;7.40;;;1.40;;
33593;SDS011;19920;52.242;20.940;2024-01-25T08:33:13;7.13;;;1.40;;
33593;SDS011;19920;52.242;20.940;2024-01-25T08:35:39;3.78;;;1.10;;
33593;SDS011;19920;52.242;20.940;2024-01-25T08:38:05;4.18;;;1.27;;
33593;SDS011;19920;52.242;20.940;2024-01-25T08:40:32;2.67;;;1.02;;
33593;SDS011;19920;52.242;20.940;2024-01-25T08:42:57;5.05;;;1.48;;
33593;SDS011;19920;52.242;20.940;2024-01-25T08:45:23;5.68;;;1.20;;
33593;SDS011;19920;52.242;20.940;2024-01-25T08:47:49;3.25;;;1.33;;
33593;SDS011;19920;52.242;20.940;2024-01-25T08:50:16;2.92;;;1.00;;
33593;SDS011;19920;52.242;20.940;2024-01-25T08:52:41;2.92;;;0.93;;
33593;SDS011;19920;52.242;20.940;2024-01-25T08:55:07;4.07;;;1.10;;
33593;SDS011;19920;52.242;20.940;2024-01-25T08:57:34;3.13;;;1.10;;
33593;SDS011;19920;52.242;20.940;2024-01-25T09:00:00;3.50;;;1.20;;
33593;SDS011;19920;52.242;20.940;2024-01-25T09:02:26;3.03;;;1.25;;
33593;SDS011;19920;52.242;20.940;2024-01-25T09:04:54;5.15;;;1.75;;
33593;SDS011;19920;52.242;20.940;2024-01-25T09:07:20;6.40;;;1.38;;
33593;SDS011;19920;52.242;20.940;2024-01-25T09:09:46;4.68;;;1.35;;
33593;SDS011;19920;52.242;20.940;2024-01-25T09:12:11;3.20;;;0.93;;
33593;SDS011;19920;52.242;20.940;2024-01-25T09:14:37;3.03;;;1.30;;
33593;SDS011;19920;52.242;20.940;2024-01-25T09:17:03;3.35;;;1.40;;
33593;SDS011;19920;52.242;20.940;2024-01-25T09:19:29;4.23;;;1.27;;
33593;SDS011;19920;52.242;20.940;2024-01-25T09:21:55;3.35;;;1.17;;
33593;SDS011;19920;52.242;20.940;2024-01-25T09:24:24;2.77;;;1.30;;
33593;SDS011;19920;52.242;20.940;2024-01-25T09:26:50;4.35;;;1.25;;
33593;SDS011;19920;52.242;20.940;2024-01-25T09:29:16;2.90;;;1.10;;
33593;SDS011;19920;52.242;20.940;2024-01-25T09:31:41;1.75;;;1.20;;
33593;SDS011;19920;52.242;20.940;2024-01-25T09:34:07;3.05;;;1.08;;
33593;SDS011;19920;52.242;20.940;2024-01-25T09:36:32;2.33;;;1.02;;
33593;SDS011;19920;52.242;20.940;2024-01-25T09:38:58;2.10;;;1.10;;
33593;SDS011;19920;52.242;20.940;2024-01-25T09:41:24;2.67;;;1.10;;
33593;SDS011;19920;52.242;20.940;2024-01-25T09:43:49;2.72;;;1.35;;
33593;SDS011;19920;52.242;20.940;2024-01-25T09:46:15;4.28;;;1.40;;
33593;SDS011;19920;52.242;20.940;2024-01-25T09:48:41;2.55;;;1.13;;
33593;SDS011;19920;52.242;20.940;2024-01-25T09:51:11;2.42;;;1.45;;
33593;SDS011;19920;52.242;20.940;2024-01-25T09:53:38;4.22;;;1.23;;
33593;SDS011;19920;52.242;20.940;2024-01-25T09:56:08;2.97;;;1.30;;
33593;SDS011;19920;52.242;20.940;2024-01-25T09:58:43;2.00;;;1.20;;
33593;SDS011;19920;52.242;20.940;2024-01-25T10:01:12;3.65;;;1.38;;
33593;SDS011;19920;52.242;20.940;2024-01-25T10:03:43;2.63;;;1.63;;
33593;SDS011;19920;52.242;20.940;2024-01-25T10:06:12;5.75;;;1.20;;
33593;SDS011;19920;52.242;20.940;2024-01-25T10:08:38;2.95;;;1.42;;
33593;SDS011;19920;52.242;20.940;2024-01-25T10:11:04;2.75;;;1.20;;
33593;SDS011;19920;52.242;20.940;2024-01-25T10:13:31;2.08;;;1.35;;
33593;SDS011;19920;52.242;20.940;2024-01-25T10:15:56;3.83;;;1.50;;
33593;SDS011;19920;52.242;20.940;2024-01-25T10:18:23;2.38;;;1.42;;
33593;SDS011;19920;52.242;20.940;2024-01-25T10:20:50;3.10;;;1.40;;
33593;SDS011;19920;52.242;20.940;2024-01-25T10:23:18;3.28;;;1.40;;
33593;SDS011;19920;52.242;20.940;2024-01-25T10:25:43;2.20;;;1.35;;
33593;SDS011;19920;52.242;20.940;2024-01-25T10:28:09;4.47;;;1.30;;
33593;SDS011;19920;52.242;20.940;2024-01-25T10:30:36;4.20;;;1.45;;
33593;SDS011;19920;52.242;20.940;2024-01-25T10:33:03;3.13;;;1.35;;
33593;SDS011;19920;52.242;20.940;2024-01-25T10:35:29;3.22;;;1.00;;
33593;SDS011;19920;52.242;20.940;2024-01-25T10:37:56;2.60;;;1.08;;
33593;SDS011;19920;52.242;20.940;2024-01-25T10:40:22;3.60;;;1.20;;
33593;SDS011;19920;52.242;20.940;2024-01-25T10:42:49;2.40;;;1.17;;
33593;SDS011;19920;52.242;20.940;2024-01-25T10:45:15;2.38;;;1.02;;
33593;SDS011;19920;52.242;20.940;2024-01-25T10:47:41;1.85;;;1.10;;
33593;SDS011;19920;52.242;20.940;2024-01-25T10:50:09;2.55;;;1.17;;
33593;SDS011;19920;52.242;20.940;2024-01-25T10:52:39;1.40;;;0.90;;
33593;SDS011;19920;52.242;20.940;2024-01-25T10:55:06;2.30;;;0.80;;
33593;SDS011;19920;52.242;20.940;2024-01-25T10:57:36;1.98;;;1.00;;
33593;SDS011;19920;52.242;20.940;2024-01-25T11:00:09;1.60;;;0.95;;
33593;SDS011;19920;52.242;20.940;2024-01-25T11:02:37;1.30;;;0.90;;
33593;SDS011;19920;52.242;20.940;2024-01-25T11:05:14;1.92;;;0.80;;
33593;SDS011;19920;52.242;20.940;2024-01-25T11:07:45;1.85;;;0.82;;
33593;SDS011;19920;52.242;20.940;2024-01-25T11:10:16;2.88;;;0.93;;
33593;SDS011;19920;52.242;20.940;2024-01-25T11:15:29;2.78;;;1.30;;
33593;SDS011;19920;52.242;20.940;2024-01-25T11:18:02;1.92;;;1.20;;
33593;SDS011;19920;52.242;20.940;2024-01-25T11:20:31;1.42;;;1.10;;
33593;SDS011;19920;52.242;20.940;2024-01-25T11:22:58;2.97;;;1.40;;
33593;SDS011;19920;52.242;20.940;2024-01-25T11:25:27;2.50;;;1.10;;
33593;SDS011;19920;52.242;20.940;2024-01-25T11:27:53;2.13;;;1.13;;
33593;SDS011;19920;52.242;20.940;2024-01-25T11:30:19;2.63;;;1.33;;
33593;SDS011;19920;52.242;20.940;2024-01-25T11:32:46;2.03;;;1.17;;
33593;SDS011;19920;52.242;20.940;2024-01-25T11:35:12;3.15;;;1.00;;
33593;SDS011;19920;52.242;20.940;2024-01-25T11:37:41;2.90;;;0.80;;
33593;SDS011;19920;52.242;20.940;2024-01-25T11:40:11;3.30;;;1.45;;
33593;SDS011;19920;52.242;20.940;2024-01-25T11:42:38;3.88;;;1.38;;
33593;SDS011;19920;52.242;20.940;2024-01-25T11:45:05;4.07;;;1.98;;
33593;SDS011;19920;52.242;20.940;2024-01-25T11:47:34;4.50;;;1.73;;
33593;SDS011;19920;52.242;20.940;2024-01-25T11:50:01;3.65;;;1.30;;
33593;SDS011;19920;52.242;20.940;2024-01-25T11:52:27;3.58;;;1.15;;
33593;SDS011;19920;52.242;20.940;2024-01-25T11:54:53;3.08;;;1.25;;
33593;SDS011;19920;52.242;20.940;2024-01-25T11:57:18;2.55;;;1.00;;
33593;SDS011;19920;52.242;20.940;2024-01-25T11:59:45;4.20;;;1.58;;
33593;SDS011;19920;52.242;20.940;2024-01-25T12:02:13;2.17;;;1.13;;
33593;SDS011;19920;52.242;20.940;2024-01-25T12:04:39;3.17;;;1.35;;
33593;SDS011;19920;52.242;20.940;2024-01-25T12:07:05;3.88;;;1.40;;
33593;SDS011;19920;52.242;20.940;2024-01-25T12:09:32;5.40;;;1.67;;
33593;SDS011;19920;52.242;20.940;2024-01-25T12:11:57;5.05;;;1.40;;
33593;SDS011;19920;52.242;20.940;2024-01-25T12:14:25;3.72;;;1.40;;
33593;SDS011;19920;52.242;20.940;2024-01-25T12:16:55;4.47;;;1.70;;
33593;SDS011;19920;52.242;20.940;2024-01-25T12:19:20;4.50;;;1.50;;
33593;SDS011;19920;52.242;20.940;2024-01-25T12:21:46;4.93;;;1.67;;
33593;SDS011;19920;52.242;20.940;2024-01-25T12:24:12;4.47;;;1.35;;
33593;SDS011;19920;52.242;20.940;2024-01-25T12:26:38;3.90;;;1.40;;
33593;SDS011;19920;52.242;20.940;2024-01-25T12:29:03;4.28;;;2.00;;
33593;SDS011;19920;52.242;20.940;2024-01-25T12:31:30;3.65;;;1.80;;
33593;SDS011;19920;52.242;20.940;2024-01-25T12:33:56;4.38;;;1.17;;
33593;SDS011;19920;52.242;20.940;2024-01-25T12:36:22;5.15;;;1.70;;
33593;SDS011;19920;52.242;20.940;2024-01-25T12:38:48;5.90;;;1.58;;
33593;SDS011;19920;52.242;20.940;2024-01-25T12:41:14;4.35;;;1.38;;
33593;SDS011;19920;52.242;20.940;2024-01-25T12:43:40;2.00;;;0.80;;
33593;SDS011;19920;52.242;20.940;2024-01-25T12:46:05;2.30;;;0.98;;
33593;SDS011;19920;52.242;20.940;2024-01-25T12:48:31;2.28;;;0.70;;
33593;SDS011;19920;52.242;20.940;2024-01-25T12:50:57;0.85;;;0.65;;
33593;SDS011;19920;52.242;20.940;2024-01-25T12:53:23;1.58;;;0.90;;
33593;SDS011;19920;52.242;20.940;2024-01-25T12:55:49;1.10;;;0.70;;
33593;SDS011;19920;52.242;20.940;2024-01-25T12:58:14;1.75;;;1.02;;
33593;SDS011;19920;52.242;20.940;2024-01-25T13:00:40;2.38;;;1.20;;
33593;SDS011;19920;52.242;20.940;2024-01-25T13:03:05;2.65;;;1.08;;
33593;SDS011;19920;52.242;20.940;2024-01-25T13:05:31;1.15;;;1.05;;
33593;SDS011;19920;52.242;20.940;2024-01-25T13:07:59;2.92;;;1.30;;
33593;SDS011;19920;52.242;20.940;2024-01-25T13:10:26;1.80;;;1.10;;
33593;SDS011;19920;52.242;20.940;2024-01-25T13:12:52;1.33;;;1.00;;
33593;SDS011;19920;52.242;20.940;2024-01-25T13:15:17;2.65;;;1.20;;
33593;SDS011;19920;52.242;20.940;2024-01-25T13:17:44;1.90;;;1.30;;
33593;SDS011;19920;52.242;20.940;2024-01-25T13:20:10;1.73;;;1.40;;
33593;SDS011;19920;52.242;20.940;2024-01-25T13:22:36;2.92;;;1.40;;
33593;SDS011;19920;52.242;20.940;2024-01-25T13:25:01;2.53;;;1.38;;
33593;SDS011;19920;52.242;20.940;2024-01-25T13:27:27;2.75;;;1.40;;
33593;SDS011;19920;52.242;20.940;2024-01-25T13:29:53;2.30;;;1.50;;
33593;SDS011;19920;52.242;20.940;2024-01-25T13:32:20;2.00;;;1.40;;
33593;SDS011;19920;52.242;20.940;2024-01-25T13:34:45;3.60;;;1.83;;
33593;SDS011;19920;52.242;20.940;2024-01-25T13:37:11;2.10;;;1.35;;
33593;SDS011;19920;52.242;20.940;2024-01-25T13:39:37;1.95;;;1.50;;
33593;SDS011;19920;52.242;20.940;2024-01-25T13:42:02;1.77;;;1.45;;
33593;SDS011;19920;52.242;20.940;2024-01-25T13:44:28;3.08;;;1.40;;
33593;SDS011;19920;52.242;20.940;2024-01-25T13:46:53;2.10;;;1.33;;
33593;SDS011;19920;52.242;20.940;2024-01-25T13:49:21;2.28;;;1.30;;
33593;SDS011;19920;52.242;20.940;2024-01-25T13:51:46;2.72;;;1.48;;
33593;SDS011;19920;52.242;20.940;2024-01-25T13:54:12;2.45;;;1.25;;
33593;SDS011;19920;52.242;20.940;2024-01-25T13:56:38;2.08;;;1.42;;
33593;SDS011;19920;52.242;20.940;2024-01-25T13:59:04;3.50;;;1.42;;
33593;SDS011;19920;52.242;20.940;2024-01-25T14:01:30;2.47;;;1.30;;
33593;SDS011;19920;52.242;20.940;2024-01-25T14:03:56;1.92;;;1.10;;
33593;SDS011;19920;52.242;20.940;2024-01-25T14:06:23;2.00;;;1.23;;
33593;SDS011;19920;52.242;20.940;2024-01-25T14:08:49;3.60;;;1.33;;
33593;SDS011;19920;52.242;20.940;2024-01-25T14:11:15;3.45;;;1.50;;
33593;SDS011;19920;52.242;20.940;2024-01-25T14:13:40;2.22;;;1.48;;
33593;SDS011;19920;52.242;20.940;2024-01-25T14:16:07;1.90;;;1.38;;
33593;SDS011;19920;52.242;20.940;2024-01-25T14:18:38;3.45;;;1.40;;
33593;SDS011;19920;52.242;20.940;2024-01-25T14:21:04;3.22;;;1.60;;
33593;SDS011;19920;52.242;20.940;2024-01-25T14:23:30;2.63;;;1.58;;
33593;SDS011;19920;52.242;20.940;2024-01-25T14:25:55;3.30;;;1.48;;
33593;SDS011;19920;52.242;20.940;2024-01-25T14:28:21;4.00;;;1.77;;
33593;SDS011;19920;52.242;20.940;2024-01-25T14:30:47;3.08;;;1.58;;